Time;durP1;ratioP1;P1;durP2;ratioP2;P2;SDS_P1;SDS_P2;PMS_P1;PMS_P2;Temp;Humidity;BMP_temperature;BMP_pressure;BME280_temperature;BME280_humidity;BME280_pressure;Samples;Min_cycle;Max_cycle;Signal;HPM_P1;HPM_P2
2023/04/17 00:01:13;;;;;;;;;;;;;;;;;;4350485;33;19986;-87
2023/04/17 00:03:38;;;;;;;;;;;;;;;;;;4348070;33;19935;-86
2023/04/17 00:06:04;;;;;;;;;;;;;;;;;;4347555;33;20004;-86
2023/04/17 00:08:30;;;;;;;;;;;;;;;;;;4346714;33;19941;-86
2023/04/17 00:10:55;;;;;;;;;;;;;;;;;;4348691;33;19942;-86
2023/04/17 00:13:20;;;;;;;;;;;;;;;;;;4348167;33;19953;-85
2023/04/17 00:15:45;;;;;;;;;;;;;;;;;;4348834;33;19985;-86
2023/04/17 00:18:10;;;;;;;;;;;;;;;;;;4348576;33;20299;-86
2023/04/17 00:20:35;;;;;;;;;;;;;;;;;;4347446;33;19965;-87
2023/04/17 00:23:01;;;;;;;;;;;;;;;;;;4353482;33;19950;-85
2023/04/17 00:25:26;;;;;;;;;;;;;;;;;;4355997;33;20347;-85
2023/04/17 00:27:51;;;;;;;;;;;;;;;;;;4353181;33;19939;-86
2023/04/17 00:30:16;;;;;;;;;;;;;;;;;;4352763;33;19949;-85
2023/04/17 00:32:41;;;;;;;;;;;;;;;;;;4351435;33;19939;-86
2023/04/17 00:35:06;;;;;;;;;;;;;;;;;;4348753;33;19990;-86
2023/04/17 00:37:32;;;;;;;;;;;;;;;;;;4348392;33;20280;-85
2023/04/17 00:39:57;;;;;;;;;;;;;;;;;;4348027;33;19935;-85
2023/04/17 00:42:22;;;;;;;;;;;;;;;;;;4349732;33;20225;-85
2023/04/17 00:44:47;;;;;;;;;;;;;;;;;;4353861;33;19939;-85
2023/04/17 00:47:12;;;;;;;;;;;;;;;;;;4357608;33;19935;-84
2023/04/17 00:49:37;;;;;;;;;;;;;;;;;;4349864;33;19976;-86
2023/04/17 00:52:02;;;;;;;;;;;;;;;;;;4361874;32;19974;-86
2023/04/17 00:54:27;;;;;;;;;;;;;;;;;;4366398;32;19939;-86
2023/04/17 00:56:52;;;;;;;;;;;;;;;;;;4370741;32;19984;-85
2023/04/17 00:59:18;;;;;;;;;;;;;;;;;;4369355;32;19982;-86
2023/04/17 01:01:43;;;;;;;;;;;;;;;;;;4366418;32;19973;-86
2023/04/17 01:04:08;;;;;;;;;;;;;;;;;;4369180;32;19942;-88
2023/04/17 01:06:33;;;;;;;;;;;;;;;;;;4366464;32;20332;-86
2023/04/17 01:08:59;;;;;;;;;;;;;;;;;;4363338;32;19939;-87
2023/04/17 01:11:24;;;;;;;;;;;;;;;;;;4365124;32;19978;-87
2023/04/17 01:13:49;;;;;;;;;;;;;;;;;;4367050;32;19934;-86
2023/04/17 01:16:14;;;;;;;;;;;;;;;;;;4360560;32;20256;-86
2023/04/17 01:18:39;;;;;;;;;;;;;;;;;;4359591;32;19950;-87
2023/04/17 01:21:04;;;;;;;;;;;;;;;;;;4359359;32;20316;-86
2023/04/17 01:23:30;;;;;;;;;;;;;;;;;;4359663;32;19935;-86
2023/04/17 01:25:55;;;;;;;;;;;;;;;;;;4360126;32;19961;-85
2023/04/17 01:28:20;;;;;;;;;;;;;;;;;;4359241;32;19946;-84
2023/04/17 01:30:45;;;;;;;;;;;;;;;;;;4360366;32;19948;-85
2023/04/17 01:33:10;;;;;;;;;;;;;;;;;;4358438;32;19946;-85
2023/04/17 01:35:35;;;;;;;;;;;;;;;;;;4358666;32;20002;-84
2023/04/17 01:38:00;;;;;;;;;;;;;;;;;;4351642;32;19963;-84
2023/04/17 01:40:25;;;;;;;;;;;;;;;;;;4349590;33;19951;-85
2023/04/17 01:42:51;;;;;;;;;;;;;;;;;;4352047;32;19954;-84
2023/04/17 01:45:16;;;;;;;;;;;;;;;;;;4359516;32;19977;-85
2023/04/17 01:47:41;;;;;;;;;;;;;;;;;;4359373;32;19981;-83
2023/04/17 01:50:07;;;;;;;;;;;;;;;;;;4357779;32;20320;-84
2023/04/17 01:52:33;;;;;;;;;;;;;;;;;;4358090;32;19943;-83
2023/04/17 01:54:58;;;;;;;;;;;;;;;;;;4357609;32;19992;-83
2023/04/17 01:57:23;;;;;;;;;;;;;;;;;;4357658;32;19939;-84
2023/04/17 01:59:48;;;;;;;;;;;;;;;;;;4358386;32;19973;-83
2023/04/17 02:02:13;;;;;;;;;;;;;;;;;;4347173;33;19970;-84
2023/04/17 02:04:38;;;;;;;;;;;;;;;;;;4357759;32;19938;-84
2023/04/17 02:07:03;;;;;;;;;;;;;;;;;;4346413;33;19982;-84
2023/04/17 02:09:28;;;;;;;;;;;;;;;;;;4347882;33;20293;-85
2023/04/17 02:11:53;;;;;;;;;;;;;;;;;;4358370;32;19993;-85
2023/04/17 02:14:18;;;;;;;;;;;;;;;;;;4358330;32;20303;-85
2023/04/17 02:16:47;;;;;;;;;;;;;;;;;;4359915;32;20364;-84
2023/04/17 02:19:12;;;;;;;;;;;;;;;;;;4358724;32;19946;-84
2023/04/17 02:21:37;;;;;;;;;;;;;;;;;;4359322;32;20373;-84
2023/04/17 02:24:02;;;;;;;;;;;;;;;;;;4357956;32;19939;-85
2023/04/17 02:26:27;;;;;;;;;;;;;;;;;;4358007;32;19939;-85
2023/04/17 02:28:52;;;;;;;;;;;;;;;;;;4346465;33;19959;-85
2023/04/17 02:31:17;;;;;;;;;;;;;;;;;;4357775;32;19977;-84
2023/04/17 02:33:42;;;;;;;;;;;;;;;;;;4362686;32;20264;-85
2023/04/17 02:36:08;;;;;;;;;;;;;;;;;;4358291;32;19935;-84
2023/04/17 02:38:33;;;;;;;;;;;;;;;;;;4357623;32;19982;-85
2023/04/17 02:40:58;;;;;;;;;;;;;;;;;;4347076;33;19949;-85
2023/04/17 02:43:23;;;;;;;;;;;;;;;;;;4357601;32;19978;-85
2023/04/17 02:45:48;;;;;;;;;;;;;;;;;;4358398;32;19935;-85
2023/04/17 02:48:13;;;;;;;;;;;;;;;;;;4358364;32;19988;-85
2023/04/17 02:50:38;;;;;;;;;;;;;;;;;;4357583;32;19947;-85
2023/04/17 02:53:03;;;;;;;;;;;;;;;;;;4346419;33;20352;-84
2023/04/17 02:55:29;;;;;;;;;;;;;;;;;;4358012;32;19939;-84
2023/04/17 02:57:54;;;;;;;;;;;;;;;;;;4358870;32;19931;-85
2023/04/17 03:00:19;;;;;;;;;;;;;;;;;;4367593;32;19971;-83
2023/04/17 03:02:45;;;;;;;;;;;;;;;;;;4360347;32;19943;-84
2023/04/17 03:05:13;;;;;;;;;;;;;;;;;;4359792;32;20268;-85
2023/04/17 03:07:38;;;;;;;;;;;;;;;;;;4359495;32;19931;-84
2023/04/17 03:10:05;;;;;;;;;;;;;;;;;;4371334;32;19943;-84
2023/04/17 03:12:30;;;;;;;;;;;;;;;;;;4360039;33;19930;-84
2023/04/17 03:14:55;;;;;;;;;;;;;;;;;;4371392;32;19942;-84
2023/04/17 03:17:20;;;;;;;;;;;;;;;;;;4360188;33;19935;-85
2023/04/17 03:19:45;;;;;;;;;;;;;;;;;;4361964;32;19950;-86
2023/04/17 03:22:11;;;;;;;;;;;;;;;;;;4347154;33;19949;-85
2023/04/17 03:24:36;;;;;;;;;;;;;;;;;;4358298;32;20018;-86
2023/04/17 03:27:01;;;;;;;;;;;;;;;;;;4346514;33;19934;-85
2023/04/17 03:29:26;;;;;;;;;;;;;;;;;;4347682;33;19953;-86
2023/04/17 03:31:51;;;;;;;;;;;;;;;;;;4357393;32;20257;-85
2023/04/17 03:34:16;;;;;;;;;;;;;;;;;;4347659;33;20331;-85
2023/04/17 03:36:41;;;;;;;;;;;;;;;;;;4365739;32;19950;-84
2023/04/17 03:39:06;;;;;;;;;;;;;;;;;;4361534;32;19949;-85
2023/04/17 03:41:31;;;;;;;;;;;;;;;;;;4359229;32;19939;-83
2023/04/17 03:43:56;;;;;;;;;;;;;;;;;;4360403;32;19978;-84
2023/04/17 03:46:21;;;;;;;;;;;;;;;;;;4359743;32;19977;-84
2023/04/17 03:48:47;;;;;;;;;;;;;;;;;;4360221;32;19950;-85
2023/04/17 03:51:12;;;;;;;;;;;;;;;;;;4349780;32;19950;-84
2023/04/17 03:53:37;;;;;;;;;;;;;;;;;;4348662;33;19942;-85
2023/04/17 03:56:02;;;;;;;;;;;;;;;;;;4351050;33;19934;-84
2023/04/17 03:58:27;;;;;;;;;;;;;;;;;;4349448;33;19952;-84
2023/04/17 04:00:54;;;;;;;;;;;;;;;;;;4347587;33;19977;-85
2023/04/17 04:03:19;;;;;;;;;;;;;;;;;;4347759;33;19931;-85
2023/04/17 04:05:44;;;;;;;;;;;;;;;;;;4347514;33;19939;-85
2023/04/17 04:08:09;;;;;;;;;;;;;;;;;;4347842;33;20002;-85
2023/04/17 04:10:35;;;;;;;;;;;;;;;;;;4347544;33;19950;-85
2023/04/17 04:13:00;;;;;;;;;;;;;;;;;;4347114;33;19965;-85
2023/04/17 04:15:25;;;;;;;;;;;;;;;;;;4348879;33;19959;-85
2023/04/17 04:17:50;;;;;;;;;;;;;;;;;;4351485;33;19935;-85
2023/04/17 04:20:15;;;;;;;;;;;;;;;;;;4351353;33;19935;-85
2023/04/17 04:22:40;;;;;;;;;;;;;;;;;;4351868;33;19939;-85
2023/04/17 04:25:05;;;;;;;;;;;;;;;;;;4349336;33;19943;-84
2023/04/17 04:27:31;;;;;;;;;;;;;;;;;;4347488;33;20324;-85
2023/04/17 04:29:57;;;;;;;;;;;;;;;;;;4350280;33;19979;-85
2023/04/17 04:32:24;;;;;;;;;;;;;;;;;;4348909;33;20339;-85
2023/04/17 04:34:49;;;;;;;;;;;;;;;;;;4349376;33;19941;-87
2023/04/17 04:37:14;;;;;;;;;;;;;;;;;;4349398;33;19942;-86
2023/04/17 04:39:39;;;;;;;;;;;;;;;;;;4351012;33;19981;-85
2023/04/17 04:42:05;;;;;;;;;;;;;;;;;;4352118;33;19947;-85
2023/04/17 04:44:30;;;;;;;;;;;;;;;;;;4349605;33;19957;-85
2023/04/17 04:46:55;;;;;;;;;;;;;;;;;;4350354;33;19943;-84
2023/04/17 04:49:20;;;;;;;;;;;;;;;;;;4350979;33;19939;-85
2023/04/17 04:51:45;;;;;;;;;;;;;;;;;;4348157;33;20358;-85
2023/04/17 04:54:10;;;;;;;;;;;;;;;;;;4347419;33;19939;-85
2023/04/17 04:56:35;;;;;;;;;;;;;;;;;;4348169;33;19942;-84
2023/04/17 04:59:00;;;;;;;;;;;;;;;;;;4349375;33;20332;-84
2023/04/17 05:01:26;;;;;;;;;;;;;;;;;;4348610;33;19985;-85
2023/04/17 05:03:51;;;;;;;;;;;;;;;;;;4349547;33;19942;-84
2023/04/17 05:06:16;;;;;;;;;;;;;;;;;;4359681;33;19938;-84
2023/04/17 05:08:41;;;;;;;;;;;;;;;;;;4356205;33;19939;-87
2023/04/17 05:11:07;;;;;;;;;;;;;;;;;;4350557;33;20339;-85
2023/04/17 05:13:32;;;;;;;;;;;;;;;;;;4352867;33;20340;-85
2023/04/17 05:15:57;;;;;;;;;;;;;;;;;;4356897;33;19938;-85
2023/04/17 05:18:22;;;;;;;;;;;;;;;;;;4353746;33;19963;-85
2023/04/17 05:20:47;;;;;;;;;;;;;;;;;;4353809;33;19934;-85
2023/04/17 05:23:12;;;;;;;;;;;;;;;;;;4361239;33;19951;-85
2023/04/17 05:25:38;;;;;;;;;;;;;;;;;;4361744;33;19945;-85
2023/04/17 05:28:03;;;;;;;;;;;;;;;;;;4361232;32;19935;-83
2023/04/17 05:30:28;;;;;;;;;;;;;;;;;;4358487;33;19939;-84
2023/04/17 05:32:53;;;;;;;;;;;;;;;;;;4351477;33;19934;-85
2023/04/17 05:35:18;;;;;;;;;;;;;;;;;;4353190;33;20281;-84
2023/04/17 05:37:43;;;;;;;;;;;;;;;;;;4352236;33;20029;-85
2023/04/17 05:40:08;;;;;;;;;;;;;;;;;;4351420;33;19978;-84
2023/04/17 05:42:34;;;;;;;;;;;;;;;;;;4348022;33;19982;-85
2023/04/17 05:44:59;;;;;;;;;;;;;;;;;;4348605;33;19951;-87
2023/04/17 05:47:24;;;;;;;;;;;;;;;;;;4346934;33;20053;-85
2023/04/17 05:49:51;;;;;;;;;;;;;;;;;;4349197;33;20331;-83
2023/04/17 05:52:16;;;;;;;;;;;;;;;;;;4359492;32;19938;-83
2023/04/17 05:54:41;;;;;;;;;;;;;;;;;;4349956;32;19934;-83
2023/04/17 05:57:06;;;;;;;;;;;;;;;;;;4361185;32;19943;-82
2023/04/17 05:59:31;;;;;;;;;;;;;;;;;;4352615;32;19950;-82
2023/04/17 06:01:58;;;;;;;;;;;;;;;;;;4351906;32;19945;-83
2023/04/17 06:04:23;;;;;;;;;;;;;;;;;;4359893;32;19972;-82
2023/04/17 06:06:48;;;;;;;;;;;;;;;;;;4360662;32;19990;-81
2023/04/17 06:09:13;;;;;;;;;;;;;;;;;;4369159;32;19961;-83
2023/04/17 06:11:38;;;;;;;;;;;;;;;;;;4356978;33;20240;-82
2023/04/17 06:14:04;;;;;;;;;;;;;;;;;;4353861;33;19970;-82
2023/04/17 06:16:29;;;;;;;;;;;;;;;;;;4367000;32;20285;-82
2023/04/17 06:18:54;;;;;;;;;;;;;;;;;;4360035;32;19977;-82
2023/04/17 06:21:20;;;;;;;;;;;;;;;;;;4359317;32;19939;-83
2023/04/17 06:23:45;;;;;;;;;;;;;;;;;;4351143;33;19973;-81
2023/04/17 06:26:11;;;;;;;;;;;;;;;;;;4360715;32;19943;-83
2023/04/17 06:28:36;;;;;;;;;;;;;;;;;;4361857;32;19936;-83
2023/04/17 06:31:01;;;;;;;;;;;;;;;;;;4347698;33;19931;-84
2023/04/17 06:33:26;;;;;;;;;;;;;;;;;;4348012;33;20288;-83
2023/04/17 06:35:51;;;;;;;;;;;;;;;;;;4348773;33;20335;-83
2023/04/17 06:38:16;;;;;;;;;;;;;;;;;;4348327;33;20043;-83
2023/04/17 06:40:42;;;;;;;;;;;;;;;;;;4347223;33;19990;-82
2023/04/17 06:43:07;;;;;;;;;;;;;;;;;;4348746;33;19939;-84
2023/04/17 06:45:32;;;;;;;;;;;;;;;;;;4359040;32;19958;-83
2023/04/17 06:47:57;;;;;;;;;;;;;;;;;;4358913;32;19947;-83
2023/04/17 06:50:22;;;;;;;;;;;;;;;;;;4360106;32;19965;-82
2023/04/17 06:52:47;;;;;;;;;;;;;;;;;;4359061;32;19950;-84
2023/04/17 06:55:12;;;;;;;;;;;;;;;;;;4347269;33;19939;-83
2023/04/17 06:57:38;;;;;;;;;;;;;;;;;;4348701;33;19953;-85
2023/04/17 07:00:03;;;;;;;;;;;;;;;;;;4359667;32;20359;-84
2023/04/17 07:02:28;;;;;;;;;;;;;;;;;;4359636;32;19935;-83
2023/04/17 07:04:56;;;;;;;;;;;;;;;;;;4359284;32;19953;-82
2023/04/17 07:07:21;;;;;;;;;;;;;;;;;;4348436;33;19939;-85
2023/04/17 07:09:47;;;;;;;;;;;;;;;;;;4361234;32;19939;-82
2023/04/17 07:12:12;;;;;;;;;;;;;;;;;;4362694;32;19969;-81
2023/04/17 07:14:39;;;;;;;;;;;;;;;;;;4373806;32;19923;-81
2023/04/17 07:17:04;;;;;;;;;;;;;;;;;;4356347;33;19977;-85
2023/04/17 07:19:29;;;;;;;;;;;;;;;;;;4375563;32;19912;-83
2023/04/17 07:21:55;;;;;;;;;;;;;;;;;;4375257;32;19939;-85
2023/04/17 07:24:20;;;;;;;;;;;;;;;;;;4377862;32;19923;-83
2023/04/17 07:26:45;;;;;;;;;;;;;;;;;;4377570;32;19963;-83
2023/04/17 07:29:10;;;;;;;;;;;;;;;;;;4377012;32;19946;-83
2023/04/17 07:31:36;;;;;;;;;;;;;;;;;;4365515;32;19958;-82
2023/04/17 07:34:01;;;;;;;;;;;;;;;;;;4365179;32;19938;-84
2023/04/17 07:36:27;;;;;;;;;;;;;;;;;;4365169;32;19951;-83
2023/04/17 07:38:52;;;;;;;;;;;;;;;;;;4365210;32;19923;-81
2023/04/17 07:41:17;;;;;;;;;;;;;;;;;;4377644;32;19930;-83
2023/04/17 07:43:42;;;;;;;;;;;;;;;;;;4365524;32;19930;-83
2023/04/17 07:46:07;;;;;;;;;;;;;;;;;;4365060;32;19915;-83
2023/04/17 07:48:33;;;;;;;;;;;;;;;;;;4378216;32;19996;-82
2023/04/17 07:50:58;;;;;;;;;;;;;;;;;;4376713;32;19923;-84
2023/04/17 07:53:24;;;;;;;;;;;;;;;;;;4376856;32;19950;-83
2023/04/17 07:55:49;;;;;;;;;;;;;;;;;;4368273;32;19935;-83
2023/04/17 07:58:15;;;;;;;;;;;;;;;;;;4364519;32;19974;-83
2023/04/17 08:00:40;;;;;;;;;;;;;;;;;;4363353;32;19960;-84
2023/04/17 08:03:06;;;;;;;;;;;;;;;;;;4362662;32;20411;-84
2023/04/17 08:05:31;;;;;;;;;;;;;;;;;;4363060;32;19990;-83
2023/04/17 08:07:56;;;;;;;;;;;;;;;;;;4366450;32;19938;-84
2023/04/17 08:10:21;;;;;;;;;;;;;;;;;;4354306;32;19939;-86
2023/04/17 08:12:46;;;;;;;;;;;;;;;;;;4365672;32;20264;-83
2023/04/17 08:15:11;;;;;;;;;;;;;;;;;;4365247;32;19938;-83
2023/04/17 08:17:37;;;;;;;;;;;;;;;;;;4351496;32;19935;-85
2023/04/17 08:20:09;;;;;;;;;;;;;;;;;;4351689;32;19955;-82
2023/04/17 08:22:35;;;;;;;;;;;;;;;;;;4350893;32;19969;-82
2023/04/17 08:25:01;;;;;;;;;;;;;;;;;;4350111;32;19939;-82
2023/04/17 08:27:27;;;;;;;;;;;;;;;;;;4351719;32;19938;-84
2023/04/17 08:29:55;;;;;;;;;;;;;;;;;;4363724;32;19968;-85
2023/04/17 08:32:20;;;;;;;;;;;;;;;;;;4364227;32;20073;-85
2023/04/17 08:34:45;;;;;;;;;;;;;;;;;;4353941;32;19943;-84
2023/04/17 08:37:10;;;;;;;;;;;;;;;;;;4363620;32;20308;-85
2023/04/17 08:39:35;;;;;;;;;;;;;;;;;;4352798;32;19981;-84
2023/04/17 08:42:01;;;;;;;;;;;;;;;;;;4363446;32;19961;-85
2023/04/17 08:44:27;;;;;;;;;;;;;;;;;;4355506;32;19939;-84
2023/04/17 08:46:52;;;;;;;;;;;;;;;;;;4372076;32;19935;-85
2023/04/17 08:49:17;;;;;;;;;;;;;;;;;;4372778;32;19942;-84
2023/04/17 08:51:42;;;;;;;;;;;;;;;;;;4362478;33;19935;-84
2023/04/17 08:54:07;;;;;;;;;;;;;;;;;;4361178;33;19953;-83
2023/04/17 08:56:32;;;;;;;;;;;;;;;;;;4360427;33;19944;-85
2023/04/17 08:58:57;;;;;;;;;;;;;;;;;;4359851;33;19935;-85
2023/04/17 09:01:22;;;;;;;;;;;;;;;;;;4359273;33;19939;-86
2023/04/17 09:03:47;;;;;;;;;;;;;;;;;;4357663;33;19939;-84
2023/04/17 09:06:13;;;;;;;;;;;;;;;;;;4357457;33;19935;-86
2023/04/17 09:08:38;;;;;;;;;;;;;;;;;;4360486;33;19935;-85
2023/04/17 09:11:03;;;;;;;;;;;;;;;;;;4362451;33;19962;-87
2023/04/17 09:13:29;;;;;;;;;;;;;;;;;;4363047;32;19929;-84
2023/04/17 09:15:54;;;;;;;;;;;;;;;;;;4362810;33;20001;-85
2023/04/17 09:18:19;;;;;;;;;;;;;;;;;;4362763;33;19927;-86
2023/04/17 09:20:44;;;;;;;;;;;;;;;;;;4358649;33;19972;-86
2023/04/17 09:23:10;;;;;;;;;;;;;;;;;;4355706;33;19953;-85
2023/04/17 09:25:35;;;;;;;;;;;;;;;;;;4354530;33;19971;-85
2023/04/17 09:28:00;;;;;;;;;;;;;;;;;;4354009;33;19973;-84
2023/04/17 09:30:26;;;;;;;;;;;;;;;;;;4358715;33;19926;-83
2023/04/17 09:32:51;;;;;;;;;;;;;;;;;;4361085;33;19959;-85
2023/04/17 09:35:16;;;;;;;;;;;;;;;;;;4362348;33;20006;-85
2023/04/17 09:37:41;;;;;;;;;;;;;;;;;;4359946;33;19973;-84
2023/04/17 09:40:09;;;;;;;;;;;;;;;;;;4354016;33;20350;-85
2023/04/17 09:42:34;;;;;;;;;;;;;;;;;;4354070;33;20000;-85
2023/04/17 09:44:59;;;;;;;;;;;;;;;;;;4352231;33;19943;-85
2023/04/17 09:47:24;;;;;;;;;;;;;;;;;;4351766;33;19931;-84
2023/04/17 09:49:51;;;;;;;;;;;;;;;;;;4350809;33;19939;-85
2023/04/17 09:52:16;;;;;;;;;;;;;;;;;;4349042;33;19934;-85
2023/04/17 09:54:41;;;;;;;;;;;;;;;;;;4350893;33;19942;-84
2023/04/17 09:57:07;;;;;;;;;;;;;;;;;;4351428;33;19953;-83
2023/04/17 09:59:32;;;;;;;;;;;;;;;;;;4355743;33;20256;-85
2023/04/17 10:01:57;;;;;;;;;;;;;;;;;;4360578;33;19935;-83
2023/04/17 10:04:22;;;;;;;;;;;;;;;;;;4358965;33;19935;-84
2023/04/17 10:06:47;;;;;;;;;;;;;;;;;;4357553;33;19945;-83
2023/04/17 10:09:12;;;;;;;;;;;;;;;;;;4357823;33;19969;-83
2023/04/17 10:11:37;;;;;;;;;;;;;;;;;;4354691;33;19946;-84
2023/04/17 10:14:03;;;;;;;;;;;;;;;;;;4354275;33;19939;-85
2023/04/17 10:16:28;;;;;;;;;;;;;;;;;;4355324;33;20321;-84
2023/04/17 10:18:53;;;;;;;;;;;;;;;;;;4356279;33;19938;-83
2023/04/17 10:21:18;;;;;;;;;;;;;;;;;;4354751;33;19954;-84
2023/04/17 10:23:43;;;;;;;;;;;;;;;;;;4351248;33;19935;-84
2023/04/17 10:26:08;;;;;;;;;;;;;;;;;;4356252;33;19954;-85
2023/04/17 10:28:33;;;;;;;;;;;;;;;;;;4355799;33;19985;-83
2023/04/17 10:31:00;;;;;;;;;;;;;;;;;;4353928;33;19939;-84
2023/04/17 10:33:25;;;;;;;;;;;;;;;;;;4351212;33;19949;-84
2023/04/17 10:35:50;;;;;;;;;;;;;;;;;;4353070;33;19939;-84
2023/04/17 10:38:17;;;;;;;;;;;;;;;;;;4348404;33;19939;-85
2023/04/17 10:40:42;;;;;;;;;;;;;;;;;;4349163;33;19973;-83
2023/04/17 10:43:08;;;;;;;;;;;;;;;;;;4347982;33;19998;-82
2023/04/17 10:45:33;;;;;;;;;;;;;;;;;;4347643;33;20362;-85
2023/04/17 10:47:58;;;;;;;;;;;;;;;;;;4346903;33;20002;-84
2023/04/17 10:50:23;;;;;;;;;;;;;;;;;;4352675;33;19981;-87
2023/04/17 10:52:49;;;;;;;;;;;;;;;;;;4360380;32;19987;-85
2023/04/17 10:55:15;;;;;;;;;;;;;;;;;;4362494;32;20323;-84
2023/04/17 10:57:40;;;;;;;;;;;;;;;;;;4362819;32;19935;-86
2023/04/17 11:00:11;;;;;;;;;;;;;;;;;;4364694;32;19950;-85
2023/04/17 11:02:37;;;;;;;;;;;;;;;;;;4354617;32;19948;-86
2023/04/17 11:05:02;;;;;;;;;;;;;;;;;;4361966;32;19939;-85
2023/04/17 11:07:27;;;;;;;;;;;;;;;;;;4362823;32;20347;-84
2023/04/17 11:09:52;;;;;;;;;;;;;;;;;;4362867;32;19950;-84
2023/04/17 11:12:17;;;;;;;;;;;;;;;;;;4362943;32;19973;-85
2023/04/17 11:14:43;;;;;;;;;;;;;;;;;;4353873;32;19947;-85
2023/04/17 11:17:08;;;;;;;;;;;;;;;;;;4365282;32;19970;-84
2023/04/17 11:19:33;;;;;;;;;;;;;;;;;;4358400;32;19953;-84
2023/04/17 11:22:00;;;;;;;;;;;;;;;;;;4362534;32;19930;-85
2023/04/17 11:24:25;;;;;;;;;;;;;;;;;;4367527;32;19935;-84
2023/04/17 11:26:50;;;;;;;;;;;;;;;;;;4364427;32;20347;-85
2023/04/17 11:29:15;;;;;;;;;;;;;;;;;;4355181;32;19977;-84
2023/04/17 11:31:40;;;;;;;;;;;;;;;;;;4365623;32;19939;-84
2023/04/17 11:34:07;;;;;;;;;;;;;;;;;;4367038;32;19938;-84
2023/04/17 11:36:32;;;;;;;;;;;;;;;;;;4368941;32;19957;-84
2023/04/17 11:38:57;;;;;;;;;;;;;;;;;;4367369;32;19946;-84
2023/04/17 11:41:22;;;;;;;;;;;;;;;;;;4355304;32;19966;-84
2023/04/17 11:43:47;;;;;;;;;;;;;;;;;;4353959;32;19942;-83
2023/04/17 11:46:12;;;;;;;;;;;;;;;;;;4367637;32;19953;-82
2023/04/17 11:48:37;;;;;;;;;;;;;;;;;;4373287;32;19931;-83
2023/04/17 11:51:06;;;;;;;;;;;;;;;;;;4363251;32;19931;-84
2023/04/17 11:53:31;;;;;;;;;;;;;;;;;;4362456;33;19935;-83
2023/04/17 11:55:56;;;;;;;;;;;;;;;;;;4358521;33;19947;-83
2023/04/17 11:58:21;;;;;;;;;;;;;;;;;;4356883;33;19935;-84
2023/04/17 12:00:46;;;;;;;;;;;;;;;;;;4355274;33;20389;-83
2023/04/17 12:03:11;;;;;;;;;;;;;;;;;;4354308;33;20312;-84
2023/04/17 12:05:36;;;;;;;;;;;;;;;;;;4352829;33;19935;-84
2023/04/17 12:08:03;;;;;;;;;;;;;;;;;;4353586;33;19943;-84
2023/04/17 12:10:28;;;;;;;;;;;;;;;;;;4350737;32;19931;-84
2023/04/17 12:12:53;;;;;;;;;;;;;;;;;;4349091;33;19952;-83
2023/04/17 12:15:18;;;;;;;;;;;;;;;;;;4355031;33;19969;-83
2023/04/17 12:17:43;;;;;;;;;;;;;;;;;;4354185;32;19978;-83
2023/04/17 12:20:08;;;;;;;;;;;;;;;;;;4353027;33;19947;-85
2023/04/17 12:22:33;;;;;;;;;;;;;;;;;;4348871;33;20280;-85
2023/04/17 12:24:59;;;;;;;;;;;;;;;;;;4347750;33;20275;-84
2023/04/17 12:27:24;;;;;;;;;;;;;;;;;;4348147;33;19966;-82
2023/04/17 12:29:49;;;;;;;;;;;;;;;;;;4359041;33;20278;-80
2023/04/17 12:32:15;;;;;;;;;;;;;;;;;;4352976;33;20009;-85
2023/04/17 12:34:40;;;;;;;;;;;;;;;;;;4355135;32;19939;-82
2023/04/17 12:37:05;;;;;;;;;;;;;;;;;;4349772;33;19930;-84
2023/04/17 12:39:31;;;;;;;;;;;;;;;;;;4348889;33;19976;-84
2023/04/17 12:41:56;;;;;;;;;;;;;;;;;;4349567;33;19930;-84
2023/04/17 12:44:21;;;;;;;;;;;;;;;;;;4348140;33;19969;-84
2023/04/17 12:46:46;;;;;;;;;;;;;;;;;;4357520;33;19935;-84
2023/04/17 12:49:12;;;;;;;;;;;;;;;;;;4361385;33;19950;-83
2023/04/17 12:51:37;;;;;;;;;;;;;;;;;;4363328;32;19962;-83
2023/04/17 12:54:02;;;;;;;;;;;;;;;;;;4354666;33;19935;-84
2023/04/17 12:56:27;;;;;;;;;;;;;;;;;;4350041;33;20260;-83
2023/04/17 12:58:52;;;;;;;;;;;;;;;;;;4347272;33;20316;-84
2023/04/17 13:01:17;;;;;;;;;;;;;;;;;;4347219;33;19939;-84
2023/04/17 13:03:43;;;;;;;;;;;;;;;;;;4346856;33;19935;-83
2023/04/17 13:06:08;;;;;;;;;;;;;;;;;;4347880;33;20287;-84
2023/04/17 13:08:33;;;;;;;;;;;;;;;;;;4350277;33;20334;-83
2023/04/17 13:10:58;;;;;;;;;;;;;;;;;;4347911;33;19943;-84
2023/04/17 13:13:23;;;;;;;;;;;;;;;;;;4346525;32;20005;-84
2023/04/17 13:15:49;;;;;;;;;;;;;;;;;;4348173;33;19949;-84
2023/04/17 13:18:14;;;;;;;;;;;;;;;;;;4348461;33;19942;-82
2023/04/17 13:20:39;;;;;;;;;;;;;;;;;;4355622;33;19943;-83
2023/04/17 13:23:04;;;;;;;;;;;;;;;;;;4357340;33;19962;-82
2023/04/17 13:25:29;;;;;;;;;;;;;;;;;;4361598;33;19945;-83
2023/04/17 13:27:54;;;;;;;;;;;;;;;;;;4359513;33;19977;-83
2023/04/17 13:30:20;;;;;;;;;;;;;;;;;;4349704;33;20281;-84
2023/04/17 13:32:48;;;;;;;;;;;;;;;;;;4347743;33;20017;-83
2023/04/17 13:35:13;;;;;;;;;;;;;;;;;;4346971;33;19935;-83
2023/04/17 13:37:38;;;;;;;;;;;;;;;;;;4347334;33;19939;-84
2023/04/17 13:40:04;;;;;;;;;;;;;;;;;;4347205;33;19977;-83
2023/04/17 13:42:29;;;;;;;;;;;;;;;;;;4346104;33;20312;-83
2023/04/17 13:44:54;;;;;;;;;;;;;;;;;;4346603;33;20304;-82
2023/04/17 13:47:19;;;;;;;;;;;;;;;;;;4347759;33;19947;-83
2023/04/17 13:49:44;;;;;;;;;;;;;;;;;;4348244;33;19985;-83
2023/04/17 13:52:10;;;;;;;;;;;;;;;;;;4356674;32;19943;-82
2023/04/17 13:54:35;;;;;;;;;;;;;;;;;;4364963;32;19967;-83
2023/04/17 13:57:00;;;;;;;;;;;;;;;;;;4349269;33;19958;-82
2023/04/17 13:59:25;;;;;;;;;;;;;;;;;;4347121;32;19939;-82
2023/04/17 14:01:50;;;;;;;;;;;;;;;;;;4347358;33;20289;-79
2023/04/17 14:04:15;;;;;;;;;;;;;;;;;;4358163;32;19939;-81
2023/04/17 14:06:42;;;;;;;;;;;;;;;;;;4347855;33;19934;-81
2023/04/17 14:09:08;;;;;;;;;;;;;;;;;;4359409;32;19965;-82
2023/04/17 14:11:33;;;;;;;;;;;;;;;;;;4348655;33;19939;-82
2023/04/17 14:13:58;;;;;;;;;;;;;;;;;;4358798;32;19947;-82
2023/04/17 14:16:23;;;;;;;;;;;;;;;;;;4347218;32;19966;-82
2023/04/17 14:18:48;;;;;;;;;;;;;;;;;;4360556;32;19953;-82
2023/04/17 14:21:14;;;;;;;;;;;;;;;;;;4361703;32;20007;-83
2023/04/17 14:23:39;;;;;;;;;;;;;;;;;;4352207;33;19955;-80
2023/04/17 14:26:05;;;;;;;;;;;;;;;;;;4354825;33;19954;-82
2023/04/17 14:28:31;;;;;;;;;;;;;;;;;;4347536;33;19972;-82
2023/04/17 14:30:56;;;;;;;;;;;;;;;;;;4361515;32;19939;-82
2023/04/17 14:33:21;;;;;;;;;;;;;;;;;;4349192;33;19953;-81
2023/04/17 14:35:46;;;;;;;;;;;;;;;;;;4348657;33;19961;-80
2023/04/17 14:38:11;;;;;;;;;;;;;;;;;;4362201;33;19938;-81
2023/04/17 14:40:36;;;;;;;;;;;;;;;;;;4363869;32;19976;-82
2023/04/17 14:43:02;;;;;;;;;;;;;;;;;;4362233;32;19942;-82
2023/04/17 14:45:27;;;;;;;;;;;;;;;;;;4360642;33;19946;-81
2023/04/17 14:47:52;;;;;;;;;;;;;;;;;;4360787;33;20241;-81
2023/04/17 14:50:17;;;;;;;;;;;;;;;;;;4361264;32;19943;-80
2023/04/17 14:52:42;;;;;;;;;;;;;;;;;;4361303;33;19946;-81
2023/04/17 14:55:07;;;;;;;;;;;;;;;;;;4347503;33;19934;-81
2023/04/17 14:57:32;;;;;;;;;;;;;;;;;;4347903;33;20391;-80
2023/04/17 14:59:57;;;;;;;;;;;;;;;;;;4363100;33;19934;-80
2023/04/17 15:02:22;;;;;;;;;;;;;;;;;;4361942;33;19949;-81
2023/04/17 15:04:49;;;;;;;;;;;;;;;;;;4363484;33;19942;-82
2023/04/17 15:07:14;;;;;;;;;;;;;;;;;;4362914;33;20386;-82
2023/04/17 15:09:39;;;;;;;;;;;;;;;;;;4362184;33;19947;-81
2023/04/17 15:12:04;;;;;;;;;;;;;;;;;;4347745;33;19989;-82
2023/04/17 15:14:29;;;;;;;;;;;;;;;;;;4360996;33;19938;-81
2023/04/17 15:16:57;;;;;;;;;;;;;;;;;;4362006;33;20312;-81
2023/04/17 15:19:22;;;;;;;;;;;;;;;;;;4361644;33;19942;-82
2023/04/17 15:21:47;;;;;;;;;;;;;;;;;;4361515;33;19934;-81
2023/04/17 15:24:12;;;;;;;;;;;;;;;;;;4347936;33;20339;-81
2023/04/17 15:26:37;;;;;;;;;;;;;;;;;;4364323;33;19953;-82
2023/04/17 15:29:02;;;;;;;;;;;;;;;;;;4359944;33;19954;-79
2023/04/17 15:31:27;;;;;;;;;;;;;;;;;;4354442;33;19942;-80
2023/04/17 15:33:52;;;;;;;;;;;;;;;;;;4361432;33;20374;-81
2023/04/17 15:36:17;;;;;;;;;;;;;;;;;;4348173;33;19939;-80
2023/04/17 15:38:43;;;;;;;;;;;;;;;;;;4363334;32;19966;-81
2023/04/17 15:41:08;;;;;;;;;;;;;;;;;;4364048;32;19939;-80
2023/04/17 15:43:33;;;;;;;;;;;;;;;;;;4350471;33;19942;-81
2023/04/17 15:45:58;;;;;;;;;;;;;;;;;;4351640;33;19992;-81
2023/04/17 15:48:24;;;;;;;;;;;;;;;;;;4363869;32;20011;-80
2023/04/17 15:50:49;;;;;;;;;;;;;;;;;;4360035;33;19938;-81
2023/04/17 15:53:14;;;;;;;;;;;;;;;;;;4365255;32;20353;-81
2023/04/17 15:55:39;;;;;;;;;;;;;;;;;;4363944;32;19954;-80
2023/04/17 15:58:05;;;;;;;;;;;;;;;;;;4364904;32;19962;-81
2023/04/17 16:00:30;;;;;;;;;;;;;;;;;;4366114;32;19968;-81
2023/04/17 16:02:55;;;;;;;;;;;;;;;;;;4368061;32;19953;-81
2023/04/17 16:05:20;;;;;;;;;;;;;;;;;;4363514;32;19989;-81
2023/04/17 16:07:45;;;;;;;;;;;;;;;;;;4364359;32;19942;-81
2023/04/17 16:10:13;;;;;;;;;;;;;;;;;;4364449;32;19946;-80
2023/04/17 16:12:39;;;;;;;;;;;;;;;;;;4363266;32;19977;-81
2023/04/17 16:15:04;;;;;;;;;;;;;;;;;;4364767;32;20395;-80
2023/04/17 16:17:29;;;;;;;;;;;;;;;;;;4365879;32;20292;-82
2023/04/17 16:19:54;;;;;;;;;;;;;;;;;;4369374;32;19935;-79
2023/04/17 16:22:19;;;;;;;;;;;;;;;;;;4370100;32;19943;-82
2023/04/17 16:24:44;;;;;;;;;;;;;;;;;;4365542;32;20000;-81
2023/04/17 16:27:09;;;;;;;;;;;;;;;;;;4367766;32;19950;-80
2023/04/17 16:29:34;;;;;;;;;;;;;;;;;;4370286;32;19945;-81
2023/04/17 16:32:00;;;;;;;;;;;;;;;;;;4371169;32;19949;-81